createdAt,value
2022-11-17T00:01:25.762Z,1.98
2022-11-17T00:03:54.269Z,1.35
2022-11-17T00:06:22.587Z,1.50
2022-11-17T00:08:53.237Z,1.85
2022-11-17T00:11:22.760Z,1.40
2022-11-17T00:14:09.917Z,1.50
2022-11-17T00:16:38.251Z,1.60
2022-11-17T00:19:24.088Z,1.30
2022-11-17T00:21:53.738Z,1.40
2022-11-17T00:24:23.674Z,1.17
2022-11-17T00:27:05.890Z,1.20
2022-11-17T00:29:39.180Z,1.20
2022-11-17T00:32:28.635Z,1.10
2022-11-17T00:34:56.929Z,1.10
2022-11-17T00:37:25.889Z,1.40
2022-11-17T00:40:00.300Z,1.30
2022-11-17T00:42:29.181Z,1.35
2022-11-17T00:44:58.829Z,1.33
2022-11-17T00:47:27.107Z,1.30
2022-11-17T00:49:55.420Z,1.20
2022-11-17T00:52:23.737Z,1.05
2022-11-17T00:54:52.071Z,1.05
2022-11-17T00:57:20.397Z,1.13
2022-11-17T00:59:48.684Z,1.33
2022-11-17T01:02:18.566Z,1.25
2022-11-17T01:04:46.909Z,1.00
2022-11-17T01:07:15.271Z,1.20
2022-11-17T01:09:43.642Z,1.20
2022-11-17T01:12:12.026Z,1.20
2022-11-17T01:14:40.565Z,1.10
2022-11-17T01:17:09.035Z,1.20
2022-11-17T01:19:38.712Z,1.20
2022-11-17T01:22:07.080Z,1.20
2022-11-17T01:24:35.378Z,1.30
2022-11-17T01:27:03.775Z,1.30
2022-11-17T01:29:32.268Z,1.15
2022-11-17T01:32:00.538Z,1.27
2022-11-17T01:34:28.832Z,1.30
2022-11-17T01:37:15.980Z,1.38
2022-11-17T01:39:44.976Z,1.38
2022-11-17T01:42:16.617Z,1.48
2022-11-17T01:44:55.376Z,1.50
2022-11-17T01:47:28.593Z,1.20
2022-11-17T01:50:02.006Z,1.40
2022-11-17T01:52:35.712Z,1.50
2022-11-17T01:55:05.232Z,1.40
2022-11-17T01:57:39.222Z,1.27
2022-11-17T02:00:10.217Z,1.38
2022-11-17T02:02:40.906Z,1.40
2022-11-17T02:05:20.870Z,1.40
2022-11-17T02:07:53.608Z,1.38
2022-11-17T02:10:22.086Z,1.33
2022-11-17T02:12:53.257Z,1.58
2022-11-17T02:15:21.996Z,1.20
2022-11-17T02:17:51.749Z,1.38
2022-11-17T02:20:30.894Z,1.48
2022-11-17T02:23:36.011Z,1.42
2022-11-17T02:26:55.454Z,1.15
2022-11-17T02:29:31.293Z,1.42
2022-11-17T02:32:07.448Z,1.25
2022-11-17T02:34:44.508Z,1.40
2022-11-17T02:37:21.560Z,1.23
2022-11-17T02:40:00.224Z,1.27
2022-11-17T02:42:53.642Z,1.10
2022-11-17T02:45:28.899Z,1.15
2022-11-17T02:48:01.315Z,1.30
2022-11-17T02:50:30.743Z,1.30
2022-11-17T02:52:59.482Z,1.50
2022-11-17T02:55:27.831Z,1.20
2022-11-17T02:57:56.162Z,1.23
2022-11-17T03:00:28.046Z,1.38
2022-11-17T03:03:20.659Z,1.38
2022-11-17T03:05:57.531Z,1.67
2022-11-17T03:08:35.418Z,1.30
2022-11-17T03:11:05.572Z,1.27
2022-11-17T03:13:46.768Z,1.35
2022-11-17T03:16:24.702Z,1.20
2022-11-17T03:19:05.334Z,1.10
2022-11-17T03:21:37.774Z,1.13
2022-11-17T03:24:12.763Z,1.30
2022-11-17T03:26:46.912Z,1.17
2022-11-17T03:29:20.154Z,1.40
2022-11-17T03:31:53.340Z,1.30
2022-11-17T03:34:25.265Z,1.30
2022-11-17T03:37:00.617Z,1.25
2022-11-17T03:39:33.530Z,1.40
2022-11-17T03:42:07.816Z,1.30
2022-11-17T03:44:41.064Z,1.42
2022-11-17T03:47:14.180Z,1.30
2022-11-17T03:49:49.809Z,1.05
2022-11-17T03:52:19.053Z,1.23
2022-11-17T03:54:47.426Z,1.30
2022-11-17T03:57:20.977Z,1.20
2022-11-17T03:59:58.162Z,1.10
2022-11-17T04:02:28.288Z,1.13
2022-11-17T04:05:08.983Z,1.33
2022-11-17T04:07:40.079Z,1.13
2022-11-17T04:10:10.681Z,1.30
2022-11-17T04:12:56.789Z,1.23
2022-11-17T04:15:42.821Z,1.10
2022-11-17T04:18:12.639Z,1.13
2022-11-17T04:20:40.944Z,1.10
2022-11-17T04:23:13.961Z,1.30
2022-11-17T04:26:01.966Z,1.10
2022-11-17T04:28:37.948Z,1.20
2022-11-17T04:31:14.974Z,1.20
2022-11-17T04:33:46.633Z,1.02
2022-11-17T04:36:17.364Z,1.30
2022-11-17T04:38:47.493Z,1.30
2022-11-17T04:41:34.810Z,1.20
2022-11-17T04:44:04.258Z,1.23
2022-11-17T04:46:34.600Z,1.23
2022-11-17T04:49:05.245Z,1.13
2022-11-17T04:51:34.825Z,1.40
2022-11-17T04:54:04.117Z,1.20
2022-11-17T04:56:32.813Z,1.17
2022-11-17T04:59:01.158Z,1.40
2022-11-17T05:01:29.962Z,1.35
2022-11-17T05:04:00.262Z,1.10
2022-11-17T05:06:33.031Z,1.30
2022-11-17T05:09:03.277Z,1.30
2022-11-17T05:11:49.471Z,1.20
2022-11-17T05:14:19.309Z,1.20
2022-11-17T05:17:09.442Z,1.20
2022-11-17T05:19:39.898Z,1.10
2022-11-17T05:22:24.751Z,1.10
2022-11-17T05:24:53.509Z,1.00
2022-11-17T05:27:22.102Z,1.00
2022-11-17T05:29:50.418Z,1.08
2022-11-17T05:32:19.304Z,1.30
2022-11-17T05:34:47.638Z,1.17
2022-11-17T05:37:17.375Z,1.30
2022-11-17T05:39:45.676Z,1.80
2022-11-17T05:42:13.940Z,1.13
2022-11-17T05:44:42.283Z,1.38
2022-11-17T05:47:10.574Z,1.20
2022-11-17T05:49:38.877Z,1.23
2022-11-17T05:52:07.187Z,1.10
2022-11-17T05:54:36.830Z,1.30
2022-11-17T05:57:10.602Z,1.23
2022-11-17T05:59:43.725Z,1.30
2022-11-17T06:02:15.685Z,1.20
2022-11-17T06:04:46.190Z,1.25
2022-11-17T06:07:14.627Z,1.23
2022-11-17T06:09:44.333Z,1.40
2022-11-17T06:12:12.811Z,1.20
2022-11-17T06:14:41.079Z,1.30
2022-11-17T06:17:21.906Z,1.20
2022-11-17T06:19:56.131Z,1.30
2022-11-17T06:22:26.439Z,1.30
2022-11-17T06:24:56.805Z,1.30
2022-11-17T06:27:26.489Z,1.25
2022-11-17T06:29:57.213Z,1.20
2022-11-17T06:32:25.630Z,1.20
2022-11-17T06:34:56.401Z,1.23
2022-11-17T06:37:25.528Z,1.25
2022-11-17T06:39:53.911Z,1.10
2022-11-17T06:42:43.776Z,1.10
2022-11-17T06:45:12.664Z,1.20
2022-11-17T06:47:41.075Z,1.10
2022-11-17T06:50:09.991Z,1.20
2022-11-17T06:52:38.870Z,1.15
2022-11-17T06:55:08.671Z,1.05
2022-11-17T06:57:38.553Z,1.10
2022-11-17T07:00:08.114Z,1.05
2022-11-17T07:02:37.166Z,1.05
2022-11-17T07:05:06.117Z,1.00
2022-11-17T07:07:34.624Z,1.13
2022-11-17T07:10:03.094Z,1.20
2022-11-17T07:12:31.479Z,1.20
2022-11-17T07:15:01.203Z,1.13
2022-11-17T07:17:29.897Z,1.10
2022-11-17T07:19:58.324Z,1.10
2022-11-17T07:22:26.701Z,1.20
2022-11-17T07:24:55.113Z,1.13
2022-11-17T07:27:23.544Z,1.30
2022-11-17T07:29:51.964Z,1.10
2022-11-17T07:32:22.077Z,1.17
2022-11-17T07:34:50.526Z,0.90
2022-11-17T07:37:18.946Z,1.00
2022-11-17T07:39:47.387Z,0.90
2022-11-17T07:42:15.780Z,0.90
2022-11-17T07:44:45.545Z,1.15
2022-11-17T07:47:13.986Z,1.20
2022-11-17T07:49:43.747Z,0.95
2022-11-17T07:52:12.161Z,1.10
2022-11-17T07:54:40.671Z,0.95
2022-11-17T07:57:09.078Z,1.10
2022-11-17T07:59:37.487Z,1.00
2022-11-17T08:02:05.895Z,0.90
2022-11-17T08:04:34.327Z,0.90
2022-11-17T08:07:04.239Z,1.00
2022-11-17T08:09:32.825Z,1.13
2022-11-17T08:12:01.242Z,1.30
2022-11-17T08:14:33.224Z,1.00
2022-11-17T08:17:02.084Z,1.10
2022-11-17T08:19:30.469Z,1.10
2022-11-17T08:21:58.882Z,0.98
2022-11-17T08:24:28.596Z,0.90
2022-11-17T08:26:57.023Z,0.93
2022-11-17T08:29:25.478Z,0.90
2022-11-17T08:31:53.889Z,0.90
2022-11-17T08:34:22.307Z,1.10
2022-11-17T08:36:50.609Z,0.93
2022-11-17T08:39:18.987Z,1.10
2022-11-17T08:41:48.708Z,1.10
2022-11-17T08:44:17.043Z,1.10
2022-11-17T08:46:45.388Z,1.00
2022-11-17T08:49:13.909Z,1.30
2022-11-17T08:51:42.293Z,1.00
2022-11-17T08:54:12.526Z,1.00
2022-11-17T08:56:40.925Z,1.10
2022-11-17T08:59:13.060Z,0.95
2022-11-17T09:01:41.709Z,1.10
2022-11-17T09:04:10.100Z,1.10
2022-11-17T09:06:38.916Z,1.00
2022-11-17T09:09:07.318Z,0.90
2022-11-17T09:11:35.708Z,1.20
2022-11-17T09:14:04.112Z,1.30
2022-11-17T09:16:33.908Z,1.02
2022-11-17T09:19:02.730Z,1.20
2022-11-17T09:21:32.400Z,0.90
2022-11-17T09:24:00.771Z,1.00
2022-11-17T09:26:29.023Z,0.93
2022-11-17T09:28:57.308Z,0.80
2022-11-17T09:31:25.756Z,0.80
2022-11-17T09:33:58.280Z,1.00
2022-11-17T09:36:27.825Z,0.90
2022-11-17T09:38:56.135Z,0.80
2022-11-17T09:41:27.753Z,0.90
2022-11-17T09:44:05.616Z,1.00
2022-11-17T09:46:51.687Z,0.90
2022-11-17T09:49:33.866Z,0.90
2022-11-17T09:52:07.957Z,0.70
2022-11-17T09:54:44.088Z,0.90
2022-11-17T09:57:22.448Z,0.80
2022-11-17T10:00:03.697Z,0.88
2022-11-17T10:02:33.333Z,0.68
2022-11-17T10:05:03.690Z,0.80
2022-11-17T10:07:35.323Z,0.80
2022-11-17T10:10:04.795Z,0.93
2022-11-17T10:12:38.904Z,0.90
2022-11-17T10:15:23.037Z,0.90
2022-11-17T10:17:51.991Z,0.80
2022-11-17T10:20:21.878Z,0.90
2022-11-17T10:22:53.170Z,1.25
2022-11-17T10:25:37.752Z,1.00
2022-11-17T10:28:08.332Z,1.00
2022-11-17T10:30:37.033Z,1.10
2022-11-17T10:33:05.731Z,1.02
2022-11-17T10:35:36.714Z,0.90
2022-11-17T10:38:09.914Z,0.90
2022-11-17T10:40:49.299Z,0.90
2022-11-17T10:43:24.477Z,0.95
2022-11-17T10:45:56.145Z,0.95
2022-11-17T10:48:28.564Z,1.10
2022-11-17T10:50:59.777Z,0.90
2022-11-17T10:53:31.636Z,1.00
2022-11-17T10:56:05.718Z,0.80
2022-11-17T10:58:56.017Z,0.70
2022-11-17T11:01:31.065Z,0.85
2022-11-17T11:03:59.467Z,0.85
2022-11-17T11:06:30.560Z,0.90
2022-11-17T11:09:02.110Z,0.77
2022-11-17T11:11:46.082Z,0.73
2022-11-17T11:14:25.903Z,0.75
2022-11-17T11:16:56.121Z,0.80
2022-11-17T11:19:25.332Z,0.80
2022-11-17T11:22:21.499Z,0.70
2022-11-17T11:25:26.470Z,0.90
2022-11-17T11:28:32.206Z,0.80
2022-11-17T11:34:31.916Z,0.90
2022-11-17T11:37:20.602Z,0.90
2022-11-17T11:39:56.279Z,0.80
2022-11-17T11:42:44.888Z,1.00
2022-11-17T11:45:25.237Z,0.88
2022-11-17T11:48:24.341Z,0.80
2022-11-17T11:50:57.580Z,0.90
2022-11-17T11:53:32.813Z,0.70
2022-11-17T11:56:09.532Z,0.85
2022-11-17T11:58:45.118Z,0.90
2022-11-17T12:01:17.140Z,0.90
2022-11-17T12:03:51.000Z,0.70
2022-11-17T12:06:42.116Z,0.70
2022-11-17T12:09:20.848Z,0.73
2022-11-17T12:12:02.953Z,1.00
2022-11-17T12:14:33.566Z,0.80
2022-11-17T12:17:06.534Z,0.80
2022-11-17T12:19:53.990Z,0.80
2022-11-17T12:22:50.342Z,0.80
2022-11-17T12:25:29.391Z,0.90
2022-11-17T12:27:57.873Z,0.80
2022-11-17T12:30:53.130Z,0.80
2022-11-17T12:33:22.581Z,0.80
2022-11-17T12:36:30.613Z,0.70
2022-11-17T12:39:01.168Z,0.70
2022-11-17T12:42:02.946Z,0.82
2022-11-17T12:45:00.204Z,0.85
2022-11-17T12:47:31.200Z,0.63
2022-11-17T12:50:21.167Z,0.77
2022-11-17T12:53:12.372Z,0.70
2022-11-17T12:56:13.864Z,0.70
2022-11-17T12:58:53.210Z,0.70
2022-11-17T13:01:32.892Z,0.85
2022-11-17T13:04:11.325Z,0.80
2022-11-17T13:06:40.631Z,0.70
2022-11-17T13:09:13.198Z,0.80
2022-11-17T13:11:41.560Z,0.93
2022-11-17T13:14:12.134Z,0.80
2022-11-17T13:16:47.632Z,0.80
2022-11-17T13:19:32.766Z,0.77
2022-11-17T13:22:03.663Z,0.80
2022-11-17T13:24:34.175Z,0.80
2022-11-17T13:27:03.766Z,1.00
2022-11-17T13:29:32.212Z,0.70
2022-11-17T13:32:13.477Z,0.70
2022-11-17T13:34:50.686Z,0.80
2022-11-17T13:37:21.462Z,0.75
2022-11-17T13:40:01.270Z,0.70
2022-11-17T13:42:33.078Z,0.80
2022-11-17T13:45:04.512Z,0.70
2022-11-17T13:47:46.511Z,0.93
2022-11-17T13:50:35.315Z,0.80
2022-11-17T13:53:07.060Z,0.73
2022-11-17T13:55:36.452Z,0.80
2022-11-17T13:58:07.900Z,0.80
2022-11-17T14:00:36.729Z,0.82
2022-11-17T14:03:27.478Z,1.00
2022-11-17T14:05:57.462Z,0.70
2022-11-17T14:08:29.562Z,0.80
2022-11-17T14:11:07.681Z,0.80
2022-11-17T14:13:40.333Z,0.70
2022-11-17T14:16:25.692Z,0.80
2022-11-17T14:19:05.256Z,0.80
2022-11-17T14:21:34.283Z,0.70
2022-11-17T14:24:11.483Z,0.70
2022-11-17T14:26:45.314Z,0.70
2022-11-17T14:29:14.473Z,0.77
2022-11-17T14:31:43.257Z,0.70
2022-11-17T14:34:13.715Z,0.73
2022-11-17T14:36:42.533Z,0.70
2022-11-17T14:39:16.075Z,0.75
2022-11-17T14:41:45.672Z,0.80
2022-11-17T14:44:14.486Z,0.70
2022-11-17T14:46:43.806Z,0.82
2022-11-17T14:49:14.104Z,0.70
2022-11-17T14:51:42.811Z,0.80
2022-11-17T14:54:11.247Z,0.77
2022-11-17T14:56:39.826Z,0.80
2022-11-17T14:59:09.385Z,0.77
2022-11-17T15:01:38.677Z,0.90
2022-11-17T15:04:34.410Z,0.80
2022-11-17T15:06:58.019Z,0.73
2022-11-17T15:09:26.433Z,0.80
2022-11-17T15:11:54.860Z,0.70
2022-11-17T15:14:24.146Z,0.85
2022-11-17T15:16:52.553Z,0.80
2022-11-17T15:19:20.980Z,0.80
2022-11-17T15:21:49.384Z,0.80
2022-11-17T15:24:19.167Z,0.80
2022-11-17T15:26:47.533Z,0.80
2022-11-17T15:29:16.368Z,0.73
2022-11-17T15:31:44.983Z,0.77
2022-11-17T15:34:18.767Z,0.82
2022-11-17T15:36:48.904Z,1.00
2022-11-17T15:39:19.151Z,0.70
2022-11-17T15:41:48.739Z,0.70
2022-11-17T15:44:18.633Z,0.80
2022-11-17T15:46:48.109Z,0.80
2022-11-17T15:49:17.257Z,0.77
2022-11-17T15:51:45.860Z,0.93
2022-11-17T15:54:20.058Z,0.80
2022-11-17T15:59:19.787Z,0.95
2022-11-17T16:01:48.716Z,0.90
2022-11-17T16:04:17.382Z,0.90
2022-11-17T16:06:47.219Z,0.98
2022-11-17T16:09:17.153Z,1.00
2022-11-17T16:11:46.091Z,0.80
2022-11-17T16:14:15.901Z,0.82
2022-11-17T16:16:46.681Z,0.90
2022-11-17T16:19:15.350Z,0.90
2022-11-17T16:21:44.464Z,0.82
2022-11-17T16:24:13.196Z,0.90
2022-11-17T16:26:41.612Z,1.05
2022-11-17T16:29:10.073Z,0.75
2022-11-17T16:31:40.474Z,0.90
2022-11-17T16:34:13.129Z,1.38
2022-11-17T16:36:43.574Z,1.02
2022-11-17T16:39:16.660Z,0.93
2022-11-17T16:41:46.474Z,0.85
2022-11-17T16:44:16.451Z,0.82
2022-11-17T16:46:47.713Z,0.82
2022-11-17T16:49:18.267Z,0.93
2022-11-17T16:51:50.961Z,0.88
2022-11-17T16:54:20.314Z,0.93
2022-11-17T16:56:48.989Z,1.10
2022-11-17T16:59:17.586Z,0.90
2022-11-17T17:01:48.090Z,1.00
2022-11-17T17:04:16.420Z,1.00
2022-11-17T17:06:46.238Z,0.90
2022-11-17T17:09:16.197Z,0.90
2022-11-17T17:11:44.956Z,1.00
2022-11-17T17:14:14.707Z,0.80
2022-11-17T17:16:43.747Z,0.80
2022-11-17T17:19:15.014Z,0.95
2022-11-17T17:21:45.407Z,0.90
2022-11-17T17:24:14.326Z,0.90
2022-11-17T17:26:42.969Z,0.80
2022-11-17T17:29:12.391Z,1.02
2022-11-17T17:31:42.429Z,1.00
2022-11-17T17:34:13.881Z,0.93
2022-11-17T17:36:42.298Z,1.08
2022-11-17T17:39:14.488Z,0.95
2022-11-17T17:41:44.225Z,1.00
2022-11-17T17:44:16.484Z,1.05
2022-11-17T17:46:45.636Z,1.27
2022-11-17T17:49:15.871Z,1.02
2022-11-17T17:51:45.265Z,1.23
2022-11-17T17:54:16.963Z,0.90
2022-11-17T17:56:45.898Z,0.95
2022-11-17T17:59:15.807Z,1.40
2022-11-17T18:01:46.072Z,1.20
2022-11-17T18:04:17.092Z,1.10
2022-11-17T18:06:47.893Z,0.90
2022-11-17T18:09:19.242Z,0.93
2022-11-17T18:11:50.047Z,1.30
2022-11-17T18:14:24.121Z,1.00
2022-11-17T18:16:54.058Z,1.00
2022-11-17T18:19:28.262Z,1.20
2022-11-17T18:21:59.876Z,1.08
2022-11-17T18:24:28.336Z,1.00
2022-11-17T18:26:56.693Z,1.02
2022-11-17T18:29:25.192Z,1.13
2022-11-17T18:31:53.712Z,1.00
2022-11-17T18:34:25.287Z,1.25
2022-11-17T18:36:55.499Z,1.25
2022-11-17T18:39:23.930Z,1.15
2022-11-17T18:41:52.338Z,1.20
2022-11-17T18:44:20.852Z,1.10
2022-11-17T18:46:49.339Z,0.93
2022-11-17T18:49:18.069Z,1.20
2022-11-17T18:51:48.397Z,1.48
2022-11-17T18:54:16.965Z,1.20
2022-11-17T18:56:45.491Z,1.00
2022-11-17T18:59:14.268Z,1.00
2022-11-17T19:01:44.049Z,1.10
2022-11-17T19:04:14.744Z,1.00
2022-11-17T19:06:43.348Z,1.00
2022-11-17T19:09:17.671Z,1.10
2022-11-17T19:14:14.559Z,1.00
2022-11-17T19:16:45.099Z,1.20
2022-11-17T19:19:15.138Z,1.20
2022-11-17T19:21:44.442Z,1.10
2022-11-17T19:24:15.165Z,1.13
2022-11-17T19:26:44.120Z,1.30
2022-11-17T19:29:17.083Z,1.50
2022-11-17T19:31:46.667Z,1.40
2022-11-17T19:34:15.585Z,1.70
2022-11-17T19:36:44.488Z,1.42
2022-11-17T19:39:15.035Z,1.55
2022-11-17T19:41:45.036Z,1.48
2022-11-17T19:44:13.576Z,1.25
2022-11-17T19:46:43.184Z,1.30
2022-11-17T19:49:12.943Z,1.50
2022-11-17T19:51:41.857Z,1.42
2022-11-17T19:54:13.284Z,1.40
2022-11-17T19:56:43.115Z,1.67
2022-11-17T19:59:16.050Z,1.42
2022-11-17T20:01:45.985Z,1.48
2022-11-17T20:04:14.630Z,1.50
2022-11-17T20:06:43.055Z,1.20
2022-11-17T20:09:13.803Z,1.55
2022-11-17T20:11:44.127Z,1.35
2022-11-17T20:14:14.265Z,1.40
2022-11-17T20:16:42.675Z,1.20
2022-11-17T20:19:12.148Z,1.30
2022-11-17T20:21:40.720Z,1.10
2022-11-17T20:24:09.718Z,1.42
2022-11-17T20:26:40.819Z,1.85
2022-11-17T20:29:10.806Z,2.03
2022-11-17T20:31:39.240Z,2.08
2022-11-17T20:34:07.983Z,1.60
2022-11-17T20:36:36.489Z,1.50
2022-11-17T20:39:07.303Z,2.05
2022-11-17T20:41:35.880Z,2.15
2022-11-17T20:44:04.503Z,2.25
2022-11-17T20:46:34.254Z,2.10
2022-11-17T20:49:02.642Z,2.00
2022-11-17T20:51:32.181Z,1.75
2022-11-17T20:54:00.649Z,1.60
2022-11-17T20:56:29.038Z,1.80
2022-11-17T20:58:57.396Z,1.77
2022-11-17T21:01:25.940Z,1.75
2022-11-17T21:03:55.737Z,2.00
2022-11-17T21:06:24.271Z,1.73
2022-11-17T21:08:53.338Z,2.47
2022-11-17T21:11:41.625Z,2.90
2022-11-17T21:14:11.731Z,2.20
2022-11-17T21:16:41.536Z,2.38
2022-11-17T21:19:11.336Z,2.22
2022-11-17T21:21:39.994Z,2.22
2022-11-17T21:24:09.060Z,1.80
2022-11-17T21:26:37.537Z,1.70
2022-11-17T21:29:16.933Z,1.92
2022-11-17T21:31:45.321Z,1.45
2022-11-17T21:34:17.616Z,1.63
2022-11-17T21:36:46.303Z,1.83
2022-11-17T21:39:18.648Z,1.80
2022-11-17T21:41:47.273Z,1.90
2022-11-17T21:44:15.782Z,1.77
2022-11-17T21:46:44.192Z,1.92
2022-11-17T21:49:12.594Z,1.80
2022-11-17T21:51:42.332Z,1.83
2022-11-17T21:54:10.857Z,1.50
2022-11-17T21:56:40.254Z,1.65
2022-11-17T21:59:12.454Z,1.52
2022-11-17T22:01:41.174Z,1.25
2022-11-17T22:04:10.114Z,1.40
2022-11-17T22:06:39.286Z,1.38
2022-11-17T22:09:09.647Z,1.50
2022-11-17T22:11:39.098Z,2.92
2022-11-17T22:14:11.948Z,2.08
2022-11-17T22:16:41.845Z,2.20
2022-11-17T22:19:10.947Z,2.10
2022-11-17T22:21:40.164Z,1.90
2022-11-17T22:24:12.331Z,1.92
2022-11-17T22:26:42.206Z,1.50
2022-11-17T22:29:15.117Z,1.48
2022-11-17T22:31:44.081Z,1.30
2022-11-17T22:34:12.510Z,1.50
2022-11-17T22:36:40.953Z,1.58
2022-11-17T22:39:10.886Z,1.50
2022-11-17T22:41:39.395Z,1.60
2022-11-17T22:44:07.852Z,1.55
2022-11-17T22:46:36.316Z,1.50
2022-11-17T22:49:04.686Z,1.60
2022-11-17T22:51:50.410Z,1.40
2022-11-17T22:54:20.107Z,1.50
2022-11-17T22:56:48.512Z,2.00
2022-11-17T22:59:17.511Z,1.48
2022-11-17T23:01:46.139Z,1.60
2022-11-17T23:04:16.328Z,1.40
2022-11-17T23:06:45.049Z,1.40
2022-11-17T23:09:13.474Z,1.90
2022-11-17T23:11:43.688Z,1.38
2022-11-17T23:14:14.006Z,1.50
2022-11-17T23:16:42.945Z,1.60
2022-11-17T23:19:13.580Z,1.60
2022-11-17T23:21:42.849Z,1.73
2022-11-17T23:24:12.966Z,1.55
2022-11-17T23:26:43.301Z,1.50
2022-11-17T23:29:11.760Z,1.30
2022-11-17T23:31:40.212Z,1.40
2022-11-17T23:34:09.857Z,1.40
2022-11-17T23:36:38.208Z,1.30
2022-11-17T23:39:06.596Z,1.20
2022-11-17T23:41:34.975Z,1.30
2022-11-17T23:44:05.166Z,1.27
2022-11-17T23:46:33.565Z,1.30
2022-11-17T23:49:02.054Z,1.13
2022-11-17T23:51:30.462Z,1.13
2022-11-17T23:53:59.856Z,1.00
2022-11-17T23:56:28.522Z,1.10
2022-11-17T23:58:56.995Z,1.20
